Time;durP1;ratioP1;P1;durP2;ratioP2;P2;SDS_P1;SDS_P2;PMS_P1;PMS_P2;Temp;Humidity;BMP_temperature;BMP_pressure;BME280_temperature;BME280_humidity;BME280_pressure;Samples;Min_cycle;Max_cycle;Signal;HPM_P1;HPM_P2
2023/08/06 00:02:25;;;;;;;9.27;6.43;;;15.40;94.00;;;;;;7387929;19;20016;-72
2023/08/06 00:04:55;;;;;;;10.88;7.05;;;15.40;94.70;;;;;;7387095;19;20362;-71
2023/08/06 00:07:25;;;;;;;11.13;6.47;;;15.30;91.50;;;;;;7387870;19;20034;-71
2023/08/06 00:09:55;;;;;;;7.85;7.05;;;15.30;93.80;;;;;;7386509;19;20022;-71
2023/08/06 00:12:27;;;;;;;8.88;7.22;;;15.40;94.20;;;;;;7386703;19;20014;-71
2023/08/06 00:14:57;;;;;;;9.68;7.07;;;15.30;93.70;;;;;;7387051;19;20014;-71
2023/08/06 00:17:27;;;;;;;8.85;7.45;;;15.30;95.20;;;;;;7387212;19;20086;-73
2023/08/06 00:19:57;;;;;;;8.90;7.88;;;15.20;94.80;;;;;;7384937;19;20018;-72
2023/08/06 00:22:27;;;;;;;9.63;7.75;;;15.20;96.30;;;;;;7387191;19;20098;-72
2023/08/06 00:24:57;;;;;;;10.68;8.50;;;15.10;96.50;;;;;;7385736;19;20043;-72
2023/08/06 00:27:30;;;;;;;11.73;8.77;;;15.20;97.70;;;;;;7386617;19;20498;-72
2023/08/06 00:29:59;;;;;;;14.60;9.32;;;15.10;98.10;;;;;;7386577;19;20050;-72
2023/08/06 00:32:29;;;;;;;14.57;10.80;;;15.00;98.00;;;;;;7387281;19;20090;-72
2023/08/06 00:34:59;;;;;;;13.80;10.30;;;15.10;99.90;;;;;;7386114;19;20014;-70
2023/08/06 00:37:29;;;;;;;12.00;10.10;;;15.00;99.90;;;;;;7386195;19;20478;-71
2023/08/06 00:39:59;;;;;;;12.25;9.75;;;15.00;99.90;;;;;;7385472;19;20090;-71
2023/08/06 00:42:32;;;;;;;16.48;10.18;;;14.90;99.90;;;;;;7386625;19;20015;-71
2023/08/06 00:45:02;;;;;;;14.75;10.68;;;14.90;99.90;;;;;;7386673;19;20025;-71
2023/08/06 00:47:32;;;;;;;13.65;10.95;;;14.90;99.90;;;;;;7392317;19;20011;-72
2023/08/06 00:50:02;;;;;;;12.60;9.65;;;15.00;99.90;;;;;;7392206;19;20114;-72
2023/08/06 00:52:32;;;;;;;12.80;9.90;;;15.00;99.90;;;;;;7391965;19;20082;-72
2023/08/06 00:55:02;;;;;;;11.13;9.85;;;15.00;99.90;;;;;;7391818;19;20014;-72
2023/08/06 00:57:35;;;;;;;11.43;9.57;;;15.10;99.90;;;;;;7391664;19;20363;-72
2023/08/06 01:00:06;;;;;;;12.68;9.77;;;15.20;99.90;;;;;;7392008;19;20018;-72
2023/08/06 01:02:36;;;;;;;11.90;9.80;;;15.20;99.90;;;;;;7392701;19;20018;-71
2023/08/06 01:05:07;;;;;;;10.88;9.18;;;15.20;99.90;;;;;;7393496;19;20010;-72
2023/08/06 01:07:51;;;;;;;13.95;9.57;;;15.20;99.90;;;;;;7393336;19;20023;-72
2023/08/06 01:10:38;;;;;;;9.07;8.00;;;15.20;99.90;;;;;;7393010;19;20031;-71
2023/08/06 01:13:19;;;;;;;10.77;8.05;;;15.10;99.90;;;;;;7393212;19;20022;-72
2023/08/06 01:15:52;;;;;;;13.35;8.88;;;15.10;99.90;;;;;;7391979;19;20019;-72
2023/08/06 01:18:22;;;;;;;14.52;9.00;;;15.10;99.90;;;;;;7392506;19;20015;-72
2023/08/06 01:20:54;;;;;;;14.60;8.73;;;15.00;99.90;;;;;;7392019;19;20014;-71
2023/08/06 01:23:24;;;;;;;11.07;8.80;;;15.00;99.90;;;;;;7392337;19;20018;-72
2023/08/06 01:26:04;;;;;;;11.07;8.80;;;15.00;99.90;;;;;;7392900;19;20349;-72
2023/08/06 01:28:42;;;;;;;11.30;8.90;;;15.00;99.90;;;;;;7391595;19;20014;-72
2023/08/06 01:31:21;;;;;;;11.20;8.68;;;14.90;99.90;;;;;;7392806;19;20018;-72
2023/08/06 01:33:53;;;;;;;10.02;8.63;;;14.90;99.90;;;;;;7392392;19;20018;-72
2023/08/06 01:36:26;;;;;;;9.27;7.68;;;14.90;99.50;;;;;;7391525;19;20017;-72
2023/08/06 01:38:57;;;;;;;10.43;7.57;;;14.90;99.00;;;;;;7389927;19;20344;-72
2023/08/06 01:41:27;;;;;;;10.10;8.70;;;15.00;98.60;;;;;;7391733;19;20077;-72
2023/08/06 01:43:56;;;;;;;12.15;9.75;;;15.00;96.50;;;;;;7390929;19;20078;-72
2023/08/06 01:46:26;;;;;;;13.60;10.90;;;15.00;96.60;;;;;;7394660;19;20014;-72
2023/08/06 01:48:56;;;;;;;17.08;11.93;;;15.10;98.00;;;;;;7389924;19;20018;-72
2023/08/06 01:51:29;;;;;;;17.67;13.25;;;15.10;97.30;;;;;;7392832;19;20007;-72
2023/08/06 01:53:59;;;;;;;16.27;12.13;;;15.10;98.50;;;;;;7390590;19;20433;-72
2023/08/06 01:56:29;;;;;;;13.80;11.07;;;15.10;99.20;;;;;;7391519;19;20081;-72
2023/08/06 01:59:02;;;;;;;16.33;10.93;;;15.10;98.70;;;;;;7389516;19;20021;-72
2023/08/06 02:01:34;;;;;;;16.75;10.68;;;15.10;98.80;;;;;;7392954;19;20074;-70
2023/08/06 02:04:04;;;;;;;11.45;8.88;;;15.00;97.80;;;;;;7388962;19;20459;-72
2023/08/06 02:06:36;;;;;;;10.82;8.82;;;14.90;96.90;;;;;;7391568;19;20070;-72
2023/08/06 02:09:06;;;;;;;8.85;7.50;;;14.80;96.70;;;;;;7391171;19;20029;-73
2023/08/06 02:11:36;;;;;;;7.82;6.35;;;14.80;96.80;;;;;;7392558;19;20011;-72
2023/08/06 02:14:06;;;;;;;5.85;4.93;;;14.70;93.40;;;;;;7389899;19;20015;-73
2023/08/06 02:16:35;;;;;;;7.10;4.82;;;14.70;90.90;;;;;;7390351;19;20081;-72
2023/08/06 02:19:05;;;;;;;5.93;4.18;;;14.70;83.80;;;;;;7389773;19;20042;-73
2023/08/06 02:21:38;;;;;;;5.38;4.05;;;14.60;70.90;;;;;;7392758;19;20474;-72
2023/08/06 02:24:08;;;;;;;7.22;4.07;;;14.70;66.40;;;;;;7389351;19;20020;-72
2023/08/06 02:26:38;;;;;;;6.28;3.65;;;14.60;60.10;;;;;;7390880;19;20340;-72
2023/08/06 02:29:08;;;;;;;4.35;3.15;;;14.60;55.80;;;;;;7389524;19;20031;-72
2023/08/06 02:31:38;;;;;;;5.43;3.42;;;14.60;54.20;;;;;;7391267;19;20010;-72
2023/08/06 02:34:08;;;;;;;7.38;3.80;;;14.50;51.60;;;;;;7388930;19;20006;-71
2023/08/06 02:36:40;;;;;;;3.97;3.35;;;14.50;52.10;;;;;;7390612;19;20073;-72
2023/08/06 02:39:10;;;;;;;6.95;3.72;;;14.50;45.20;;;;;;7389891;19;20033;-72
2023/08/06 02:41:40;;;;;;;3.85;3.28;;;14.50;40.90;;;;;;7390957;19;20098;-72
2023/08/06 02:44:10;;;;;;;4.22;3.00;;;14.50;42.60;;;;;;7388917;19;20512;-72
2023/08/06 02:46:40;;;;;;;4.68;3.00;;;14.40;39.70;;;;;;7392267;19;20010;-72
2023/08/06 02:49:09;;;;;;;5.57;3.30;;;14.50;36.60;;;;;;7390042;19;20014;-72
2023/08/06 02:51:42;;;;;;;5.53;3.20;;;14.40;33.30;;;;;;7390746;19;20041;-72
2023/08/06 02:54:12;;;;;;;5.78;3.00;;;14.40;31.80;;;;;;7387777;19;20019;-72
2023/08/06 02:56:46;;;;;;;4.80;3.15;;;14.50;34.30;;;;;;7389174;19;20018;-73
2023/08/06 02:59:16;;;;;;;3.88;3.40;;;14.40;34.30;;;;;;7389490;19;20018;-72
2023/08/06 03:01:46;;;;;;;3.70;3.33;;;14.30;37.40;;;;;;7390344;19;20015;-72
2023/08/06 03:04:17;;;;;;;4.25;3.10;;;14.30;41.80;;;;;;7388448;19;20010;-72
2023/08/06 03:06:52;;;;;;;4.90;3.75;;;14.20;44.80;;;;;;7388205;19;20018;-72
2023/08/06 03:09:21;;;;;;;6.55;3.25;;;14.10;45.10;;;;;;7387545;19;20032;-72
2023/08/06 03:11:51;;;;;;;5.60;3.40;;;14.00;41.80;;;;;;7393219;19;20400;-72
2023/08/06 03:14:22;;;;;;;5.45;3.38;;;14.00;48.10;;;;;;7388348;19;20010;-72
2023/08/06 03:16:52;;;;;;;4.13;3.28;;;14.00;45.20;;;;;;7387115;19;20085;-72
2023/08/06 03:19:22;;;;;;;6.60;3.70;;;14.00;45.30;;;;;;7387970;19;20029;-72
2023/08/06 03:21:54;;;;;;;3.97;3.22;;;14.10;44.40;;;;;;7390405;19;20015;-72
2023/08/06 03:24:24;;;;;;;3.55;3.05;;;14.10;44.00;;;;;;7388179;19;20018;-72
2023/08/06 03:26:54;;;;;;;4.97;3.38;;;14.10;44.00;;;;;;7387892;19;20022;-72
2023/08/06 03:29:24;;;;;;;4.57;4.07;;;14.30;45.30;;;;;;7387851;19;20014;-72
2023/08/06 03:31:55;;;;;;;8.32;4.28;;;14.30;45.50;;;;;;7390802;19;20035;-72
2023/08/06 03:34:24;;;;;;;9.38;4.63;;;14.30;47.20;;;;;;7388009;19;20018;-72
2023/08/06 03:36:57;;;;;;;7.35;4.57;;;14.20;50.80;;;;;;7387681;19;20038;-72
2023/08/06 03:39:27;;;;;;;7.72;4.25;;;14.30;56.70;;;;;;7387704;19;20510;-69
2023/08/06 03:41:57;;;;;;;7.20;4.13;;;14.30;58.90;;;;;;7390306;19;20018;-71
2023/08/06 03:44:28;;;;;;;4.85;3.97;;;14.30;61.00;;;;;;7386678;19;20034;-70
2023/08/06 03:46:58;;;;;;;7.35;4.60;;;14.30;64.00;;;;;;7390741;19;20011;-70
2023/08/06 03:49:28;;;;;;;5.93;4.32;;;14.40;60.80;;;;;;7387389;19;20018;-71
2023/08/06 03:52:00;;;;;;;5.72;4.25;;;14.40;57.20;;;;;;7388002;19;20130;-71
2023/08/06 03:54:30;;;;;;;4.90;4.07;;;14.50;52.60;;;;;;7387684;19;20014;-71
2023/08/06 03:57:00;;;;;;;4.43;3.85;;;14.50;50.40;;;;;;7385354;19;20018;-71
2023/08/06 03:59:30;;;;;;;9.50;4.10;;;14.40;47.20;;;;;;7387715;19;20014;-71
2023/08/06 04:02:00;;;;;;;6.32;3.95;;;14.50;53.30;;;;;;7389885;19;20014;-71
2023/08/06 04:04:30;;;;;;;4.75;3.47;;;14.40;53.90;;;;;;7387017;19;20537;-72
2023/08/06 04:07:02;;;;;;;6.10;3.53;;;14.50;53.80;;;;;;7386560;19;20092;-71
2023/08/06 04:09:32;;;;;;;4.13;3.25;;;14.40;49.90;;;;;;7384950;19;20070;-71
2023/08/06 04:12:04;;;;;;;5.22;3.40;;;14.40;49.00;;;;;;7390588;19;20014;-71
2023/08/06 04:14:34;;;;;;;4.50;3.05;;;14.50;47.10;;;;;;7386756;19;20014;-71
2023/08/06 04:17:04;;;;;;;5.32;3.70;;;14.40;37.40;;;;;;7385934;19;20088;-72
2023/08/06 04:19:34;;;;;;;7.82;3.20;;;14.40;41.00;;;;;;7386591;19;20503;-71
2023/08/06 04:22:07;;;;;;;6.55;3.10;;;14.40;41.40;;;;;;7392993;19;20014;-71
2023/08/06 04:24:37;;;;;;;5.32;3.55;;;14.40;39.20;;;;;;7394160;19;20078;-71
2023/08/06 04:27:07;;;;;;;4.32;3.13;;;14.50;42.30;;;;;;7394028;19;20074;-71
2023/08/06 04:29:37;;;;;;;4.03;3.55;;;14.50;44.20;;;;;;7394055;19;20119;-72
2023/08/06 04:32:09;;;;;;;4.20;3.20;;;14.30;35.50;;;;;;7397518;19;20010;-72
2023/08/06 04:34:39;;;;;;;3.92;3.20;;;14.40;35.70;;;;;;7392844;19;20421;-72
2023/08/06 04:37:12;;;;;;;4.05;2.97;;;14.50;34.30;;;;;;7394370;19;20022;-71
2023/08/06 04:39:42;;;;;;;3.17;2.65;;;14.60;33.60;;;;;;7391963;19;20078;-71
2023/08/06 04:42:12;;;;;;;3.92;2.75;;;14.60;32.90;;;;;;7396493;19;20482;-71
2023/08/06 04:44:42;;;;;;;5.38;3.28;;;14.50;28.40;;;;;;7393479;19;20090;-71
2023/08/06 04:47:11;;;;;;;5.18;2.60;;;14.60;28.90;;;;;;7397077;19;20018;-71
2023/08/06 04:49:41;;;;;;;4.22;2.40;;;14.50;26.40;;;;;;7392259;19;20010;-71
2023/08/06 04:52:14;;;;;;;3.08;2.30;;;14.40;20.80;;;;;;7396882;19;20037;-71
2023/08/06 04:54:46;;;;;;;6.15;2.80;;;14.50;25.00;;;;;;7391690;19;20010;-71
2023/08/06 04:57:16;;;;;;;5.25;2.45;;;14.50;26.70;;;;;;7393514;19;20042;-71
2023/08/06 04:59:46;;;;;;;4.43;2.55;;;14.40;28.20;;;;;;7389277;19;20014;-72
2023/08/06 05:02:16;;;;;;;4.63;2.30;;;14.50;28.90;;;;;;7395219;19;20598;-71
2023/08/06 05:04:46;;;;;;;3.65;2.55;;;14.50;31.60;;;;;;7392861;19;20014;-71
2023/08/06 05:07:18;;;;;;;4.78;2.65;;;14.60;31.30;;;;;;7393013;19;20041;-71
2023/08/06 05:09:48;;;;;;;4.93;3.58;;;14.60;36.30;;;;;;7391239;19;20046;-71
2023/08/06 05:12:18;;;;;;;6.55;2.78;;;14.70;37.60;;;;;;7396272;19;20496;-71
2023/08/06 05:14:48;;;;;;;4.97;3.03;;;14.70;33.40;;;;;;7393030;19;20019;-71
2023/08/06 05:17:18;;;;;;;3.85;2.63;;;14.70;32.60;;;;;;7393003;19;20077;-71
2023/08/06 05:19:48;;;;;;;3.25;1.92;;;14.80;37.00;;;;;;7391419;19;20022;-71
2023/08/06 05:22:20;;;;;;;7.30;2.55;;;14.90;30.60;;;;;;7394550;19;20018;-72
2023/08/06 05:24:50;;;;;;;3.03;2.15;;;15.10;32.20;;;;;;7392853;19;20015;-71
2023/08/06 05:27:21;;;;;;;2.95;2.25;;;15.10;24.40;;;;;;7392555;19;20445;-72
2023/08/06 05:29:51;;;;;;;4.15;2.08;;;15.20;18.00;;;;;;7391591;19;20014;-71
2023/08/06 05:32:20;;;;;;;7.10;2.35;;;15.30;17.40;;;;;;7395009;19;20035;-71
2023/08/06 05:34:51;;;;;;;5.43;2.30;;;15.40;15.90;;;;;;7390506;19;20019;-71
2023/08/06 05:37:23;;;;;;;5.35;1.92;;;15.50;15.20;;;;;;7392579;19;20077;-72
2023/08/06 05:39:53;;;;;;;3.90;2.25;;;15.50;17.10;;;;;;7389238;19;20365;-71
2023/08/06 05:42:23;;;;;;;4.88;2.25;;;15.50;16.10;;;;;;7395176;19;20023;-72
2023/08/06 05:44:53;;;;;;;5.38;2.05;;;15.50;14.90;;;;;;7391601;19;20561;-70
2023/08/06 05:47:23;;;;;;;4.32;2.00;;;15.40;15.00;;;;;;7395721;19;20022;-71
2023/08/06 05:49:53;;;;;;;3.38;1.80;;;15.40;16.80;;;;;;7390076;19;20018;-71
2023/08/06 05:52:25;;;;;;;2.95;1.80;;;15.50;17.10;;;;;;7395595;19;20084;-71
2023/08/06 05:54:55;;;;;;;3.83;1.98;;;15.40;11.50;;;;;;7391391;19;20082;-71
2023/08/06 05:57:25;;;;;;;1.67;1.40;;;15.50;10.50;;;;;;7391595;19;20074;-71
2023/08/06 05:59:55;;;;;;;6.93;2.80;;;15.50;9.70;;;;;;7390231;19;20787;-71
2023/08/06 06:02:25;;;;;;;3.33;1.50;;;15.60;9.20;;;;;;7394813;19;20014;-71
2023/08/06 06:04:55;;;;;;;2.17;1.35;;;15.60;8.50;;;;;;7391649;19;20011;-71
2023/08/06 06:07:27;;;;;;;4.13;1.60;;;15.50;5.60;;;;;;7391978;19;20038;-71
2023/08/06 06:09:57;;;;;;;3.33;1.38;;;15.50;7.00;;;;;;7391194;19;20020;-71
2023/08/06 06:12:27;;;;;;;2.63;1.70;;;15.50;6.20;;;;;;7391066;19;20399;-71
2023/08/06 06:14:57;;;;;;;3.25;1.58;;;15.60;7.40;;;;;;7391070;19;20081;-71
2023/08/06 06:17:27;;;;;;;1.65;1.20;;;15.60;5.70;;;;;;7390000;19;20074;-71
2023/08/06 06:19:57;;;;;;;2.65;1.30;;;15.50;2.10;;;;;;7390995;19;20022;-71
2023/08/06 06:22:29;;;;;;;2.55;1.23;;;15.40;7.80;;;;;;7392664;19;20355;-71
2023/08/06 06:24:59;;;;;;;2.80;1.00;;;15.40;13.40;;;;;;7390432;19;20019;-71
2023/08/06 06:27:29;;;;;;;2.15;0.90;;;15.30;11.80;;;;;;7390649;19;20085;-71
2023/08/06 06:29:59;;;;;;;3.83;1.10;;;15.30;12.30;;;;;;7390613;19;20025;-71
2023/08/06 06:32:29;;;;;;;2.97;1.17;;;15.30;13.00;;;;;;7392739;19;20462;-72
2023/08/06 06:34:58;;;;;;;1.08;0.68;;;15.30;12.10;;;;;;7390621;19;20018;-71
2023/08/06 06:37:31;;;;;;;1.77;0.68;;;15.30;11.20;;;;;;7389498;19;20082;-71
2023/08/06 06:40:01;;;;;;;3.67;0.70;;;15.20;8.00;;;;;;7390930;19;20074;-71
2023/08/06 06:42:31;;;;;;;1.40;0.63;;;15.20;8.60;;;;;;7391446;19;20600;-71
2023/08/06 06:45:00;;;;;;;1.20;0.50;;;15.10;11.60;;;;;;7388224;19;20032;-71
2023/08/06 06:47:31;;;;;;;3.78;0.60;;;15.10;8.50;;;;;;7390969;19;20014;-72
2023/08/06 06:50:01;;;;;;;2.97;0.65;;;15.20;10.70;;;;;;7388086;19;20467;-70
2023/08/06 06:52:33;;;;;;;2.25;0.65;;;15.10;9.90;;;;;;7392968;19;20081;-71
2023/08/06 06:55:03;;;;;;;2.30;0.88;;;15.10;12.70;;;;;;7389845;19;20082;-70
2023/08/06 06:57:33;;;;;;;1.52;0.60;;;15.10;16.60;;;;;;7390310;19;20021;-70
2023/08/06 07:00:03;;;;;;;3.97;0.95;;;15.10;16.20;;;;;;7389250;19;20466;-70
2023/08/06 07:02:35;;;;;;;2.03;0.73;;;15.10;16.90;;;;;;7392002;19;20038;-70
2023/08/06 07:05:06;;;;;;;1.90;0.70;;;15.10;17.80;;;;;;7387720;19;20356;-71
2023/08/06 07:07:39;;;;;;;1.00;0.60;;;15.20;18.10;;;;;;7388963;19;20487;-70
2023/08/06 07:10:11;;;;;;;3.40;0.68;;;15.40;10.40;;;;;;7389174;19;20018;-71
2023/08/06 07:12:40;;;;;;;1.45;0.50;;;15.60;2.70;;;;;;7391984;19;20018;-70
2023/08/06 07:15:11;;;;;;;6.20;0.55;;;15.60;1.00;;;;;;7388179;19;20484;-71
2023/08/06 07:17:41;;;;;;;1.75;0.40;;;15.70;1.00;;;;;;7388232;19;20092;-71
2023/08/06 07:20:12;;;;;;;1.50;0.30;;;15.60;1.00;;;;;;7388620;19;20010;-71
2023/08/06 07:22:44;;;;;;;2.10;0.63;;;15.50;1.00;;;;;;7391851;19;20482;-71
2023/08/06 07:25:14;;;;;;;0.70;0.40;;;15.40;1.00;;;;;;7387174;19;20018;-70
2023/08/06 07:27:44;;;;;;;0.20;0.20;;;15.30;1.00;;;;;;7388678;19;20011;-70
2023/08/06 07:30:14;;;;;;;1.20;0.40;;;15.30;1.00;;;;;;7388699;19;20082;-71
2023/08/06 07:32:44;;;;;;;0.90;0.30;;;15.40;1.00;;;;;;7390531;19;20483;-70
2023/08/06 07:35:14;;;;;;;2.28;0.47;;;15.30;1.00;;;;;;7388673;19;20014;-71
2023/08/06 07:37:47;;;;;;;0.40;0.20;;;15.20;1.00;;;;;;7389178;19;20010;-71
2023/08/06 07:40:17;;;;;;;0.20;0.20;;;15.20;1.00;;;;;;7386895;19;20552;-71
2023/08/06 07:42:46;;;;;;;1.08;0.30;;;15.20;1.00;;;;;;7391379;19;20017;-70
2023/08/06 07:45:17;;;;;;;0.17;0.17;;;15.30;1.00;;;;;;7386427;19;20025;-71
2023/08/06 07:47:47;;;;;;;3.30;0.30;;;15.50;1.00;;;;;;7388351;19;20495;-71
2023/08/06 07:50:17;;;;;;;1.17;0.13;;;15.50;1.00;;;;;;7387584;19;20018;-71
2023/08/06 07:52:49;;;;;;;0.82;0.20;;;15.60;1.00;;;;;;7390452;19;20507;-71
2023/08/06 07:55:19;;;;;;;1.67;0.40;;;15.70;1.00;;;;;;7389994;19;20018;-71
2023/08/06 07:57:49;;;;;;;0.73;0.40;;;16.10;1.00;;;;;;7396034;19;20022;-71
2023/08/06 08:00:19;;;;;;;0.32;0.28;;;16.00;1.00;;;;;;7394018;19;20022;-71
2023/08/06 08:02:49;;;;;;;0.82;0.20;;;15.80;1.00;;;;;;7397761;19;20023;-71
2023/08/06 08:05:19;;;;;;;1.40;0.30;;;15.80;1.00;;;;;;7391577;19;20010;-71
2023/08/06 08:07:52;;;;;;;0.65;0.28;;;15.80;1.00;;;;;;7395808;19;20010;-71
2023/08/06 08:10:21;;;;;;;0.90;0.20;;;15.90;1.00;;;;;;7394130;19;20048;-71
2023/08/06 08:12:51;;;;;;;2.70;0.20;;;16.00;1.00;;;;;;7397498;19;20018;-71
2023/08/06 08:15:22;;;;;;;1.50;0.38;;;16.10;1.00;;;;;;7393174;19;20017;-71
2023/08/06 08:17:52;;;;;;;0.70;0.30;;;16.10;1.00;;;;;;7394940;19;20103;-71
2023/08/06 08:20:22;;;;;;;1.00;0.25;;;16.50;1.00;;;;;;7392726;19;20054;-71
2023/08/06 08:22:55;;;;;;;0.68;0.30;;;16.80;1.00;;;;;;7397722;19;20015;-71
2023/08/06 08:25:25;;;;;;;0.60;0.28;;;17.00;1.00;;;;;;7390428;19;20027;-71
2023/08/06 08:27:55;;;;;;;0.85;0.30;;;17.10;1.00;;;;;;7394699;19;20085;-71
2023/08/06 08:30:25;;;;;;;0.13;0.10;;;17.10;1.00;;;;;;7392891;19;20022;-71
2023/08/06 08:32:55;;;;;;;0.90;0.20;;;17.10;1.00;;;;;;7398402;19;20029;-70
2023/08/06 08:35:25;;;;;;;0.75;0.13;;;17.00;1.00;;;;;;7393880;19;20022;-71
2023/08/06 08:37:58;;;;;;;1.58;0.20;;;17.10;1.00;;;;;;7394098;19;20070;-71
2023/08/06 08:40:32;;;;;;;0.40;0.25;;;16.70;1.00;;;;;;7393499;19;20132;-72
2023/08/06 08:43:02;;;;;;;2.55;0.28;;;16.80;1.00;;;;;;7396919;19;20011;-71
2023/08/06 08:45:36;;;;;;;0.57;0.20;;;17.00;1.00;;;;;;7392411;19;20422;-71
2023/08/06 08:48:06;;;;;;;0.28;0.10;;;17.10;1.00;;;;;;7392923;19;20006;-72
2023/08/06 08:50:36;;;;;;;0.63;0.10;;;16.90;1.00;;;;;;7392856;19;20014;-71
2023/08/06 08:53:10;;;;;;;0.13;0.10;;;16.80;1.00;;;;;;7396999;19;20018;-71
2023/08/06 08:55:41;;;;;;;0.90;0.20;;;16.90;1.00;;;;;;7392893;19;20478;-71
2023/08/06 08:58:12;;;;;;;1.58;0.20;;;16.70;1.00;;;;;;7392864;19;20019;-72
2023/08/06 09:00:44;;;;;;;1.05;0.20;;;16.70;1.00;;;;;;7392674;19;20103;-70
2023/08/06 09:03:14;;;;;;;0.20;0.13;;;16.50;1.00;;;;;;7397020;19;20015;-71
2023/08/06 09:05:47;;;;;;;3.60;0.30;;;16.20;1.00;;;;;;7390148;19;20014;-71
2023/08/06 09:08:22;;;;;;;2.45;0.38;;;15.80;1.00;;;;;;7392089;19;20038;-71
2023/08/06 09:10:52;;;;;;;0.75;0.30;;;15.80;4.30;;;;;;7392176;19;20018;-72
2023/08/06 09:13:23;;;;;;;1.30;0.30;;;15.80;7.80;;;;;;7393493;19;20077;-72
2023/08/06 09:15:53;;;;;;;1.98;0.20;;;15.90;13.20;;;;;;7392806;19;20078;-71
2023/08/06 09:18:28;;;;;;;1.90;0.30;;;15.80;11.20;;;;;;7392393;19;20017;-72
2023/08/06 09:20:59;;;;;;;0.65;0.20;;;15.70;11.60;;;;;;7390731;19;20093;-72
2023/08/06 09:23:35;;;;;;;0.43;0.20;;;15.70;10.40;;;;;;7393085;19;20014;-72
2023/08/06 09:26:05;;;;;;;0.40;0.20;;;15.70;12.70;;;;;;7390506;19;20025;-72
2023/08/06 09:28:43;;;;;;;0.55;0.10;;;15.70;11.00;;;;;;7392660;19;20015;-72
2023/08/06 09:31:13;;;;;;;1.05;0.30;;;15.80;12.10;;;;;;7389847;19;20010;-72
2023/08/06 09:33:44;;;;;;;0.50;0.17;;;16.10;9.80;;;;;;7391164;19;20015;-71
2023/08/06 09:36:15;;;;;;;0.95;0.30;;;16.40;6.50;;;;;;7393406;19;20408;-71
2023/08/06 09:38:47;;;;;;;0.73;0.20;;;16.60;1.00;;;;;;7391997;19;20389;-71
2023/08/06 09:41:29;;;;;;;0.40;0.10;;;16.50;1.00;;;;;;7390509;19;20011;-71
2023/08/06 09:43:59;;;;;;;0.30;0.10;;;16.50;1.00;;;;;;7391926;19;20320;-73
2023/08/06 09:46:34;;;;;;;0.30;0.13;;;16.20;1.00;;;;;;7392796;19;20025;-71
2023/08/06 09:49:07;;;;;;;1.30;0.20;;;16.00;4.40;;;;;;7391345;19;20018;-72
2023/08/06 09:51:39;;;;;;;2.90;0.40;;;16.20;1.00;;;;;;7390105;19;20018;-72
2023/08/06 09:54:14;;;;;;;0.65;0.15;;;16.30;3.00;;;;;;7391920;19;20023;-70
2023/08/06 09:56:56;;;;;;;0.20;0.13;;;16.40;1.00;;;;;;7391058;19;20096;-72
2023/08/06 09:59:27;;;;;;;0.52;0.10;;;16.50;1.00;;;;;;7391694;19;20016;-72
2023/08/06 10:01:57;;;;;;;0.10;0.10;;;16.50;1.00;;;;;;7390562;19;20031;-72
2023/08/06 10:04:28;;;;;;;0.75;0.17;;;16.30;1.00;;;;;;7391547;19;20015;-72
2023/08/06 10:07:09;;;;;;;0.10;0.10;;;16.30;1.00;;;;;;7391873;19;20544;-71
2023/08/06 10:09:42;;;;;;;0.45;0.20;;;16.20;1.00;;;;;;7389780;19;20014;-71
2023/08/06 10:12:12;;;;;;;0.22;0.22;;;16.30;1.00;;;;;;7393063;19;20366;-72
2023/08/06 10:14:44;;;;;;;0.63;0.30;;;16.60;1.00;;;;;;7391518;19;20014;-72
2023/08/06 10:17:14;;;;;;;2.35;0.30;;;16.40;1.00;;;;;;7391996;19;20055;-73
2023/08/06 10:19:45;;;;;;;0.98;0.10;;;16.40;1.00;;;;;;7394237;19;20066;-72
2023/08/06 10:22:17;;;;;;;0.20;0.10;;;16.50;1.00;;;;;;7392989;19;20438;-73
2023/08/06 10:24:54;;;;;;;0.10;0.10;;;16.40;1.00;;;;;;7390547;19;20354;-73
2023/08/06 10:27:26;;;;;;;0.20;0.10;;;16.70;1.00;;;;;;7391573;19;20015;-72
2023/08/06 10:29:55;;;;;;;0.50;0.20;;;16.80;1.00;;;;;;7389120;19;20092;-72
2023/08/06 10:33:00;;;;;;;0.60;0.20;;;16.80;1.00;;;;;;7390894;19;20488;-73
2023/08/06 10:35:32;;;;;;;1.30;0.20;;;16.70;1.00;;;;;;7394387;19;20018;-73
2023/08/06 10:38:06;;;;;;;0.30;0.28;;;16.60;1.00;;;;;;7392688;19;20057;-72
2023/08/06 10:40:39;;;;;;;0.77;0.28;;;16.30;1.00;;;;;;7389153;19;20015;-73
2023/08/06 10:43:10;;;;;;;0.22;0.10;;;16.40;1.00;;;;;;7391114;19;20022;-72
2023/08/06 10:45:40;;;;;;;1.30;0.20;;;16.50;1.00;;;;;;7389190;19;20015;-73
2023/08/06 10:48:10;;;;;;;0.22;0.10;;;16.40;1.00;;;;;;7390395;19;20002;-72
2023/08/06 10:50:40;;;;;;;0.13;0.10;;;16.50;1.00;;;;;;7388153;19;20087;-73
2023/08/06 10:53:11;;;;;;;0.17;0.15;;;16.50;1.00;;;;;;7391237;19;20443;-72
2023/08/06 10:55:44;;;;;;;1.17;0.10;;;16.50;1.00;;;;;;7389722;19;20478;-73
2023/08/06 10:58:18;;;;;;;0.40;0.20;;;16.50;1.00;;;;;;7388233;19;20488;-73
2023/08/06 11:00:49;;;;;;;0.90;0.20;;;16.20;1.00;;;;;;7387892;19;20486;-73
2023/08/06 11:03:19;;;;;;;0.40;0.20;;;16.30;1.00;;;;;;7392600;19;20503;-73
2023/08/06 11:05:52;;;;;;;1.20;0.47;;;16.00;1.00;;;;;;7389039;19;20520;-73
2023/08/06 11:08:28;;;;;;;1.65;0.20;;;16.00;1.00;;;;;;7389091;19;20021;-73
2023/08/06 11:11:10;;;;;;;2.42;0.50;;;16.10;1.00;;;;;;7386882;19;20026;-73
2023/08/06 11:13:40;;;;;;;0.88;0.45;;;15.80;1.00;;;;;;7391887;19;20036;-73
2023/08/06 11:16:11;;;;;;;1.05;0.45;;;15.70;1.00;;;;;;7389791;19;20499;-73
2023/08/06 11:18:42;;;;;;;0.57;0.47;;;15.80;1.00;;;;;;7392663;19;20011;-73
2023/08/06 11:21:12;;;;;;;5.65;0.85;;;15.70;1.00;;;;;;7390894;19;20014;-72
2023/08/06 11:23:43;;;;;;;0.82;0.60;;;15.70;1.00;;;;;;7391568;19;20038;-73
2023/08/06 11:26:22;;;;;;;0.50;0.40;;;15.70;1.00;;;;;;7388175;19;20470;-73
2023/08/06 11:28:53;;;;;;;0.47;0.40;;;15.70;1.00;;;;;;7388553;19;20478;-72
2023/08/06 11:31:23;;;;;;;1.10;0.65;;;15.90;1.00;;;;;;7385749;19;20035;-74
2023/08/06 11:33:54;;;;;;;1.00;0.70;;;15.90;1.00;;;;;;7387975;19;20018;-73
2023/08/06 11:36:32;;;;;;;0.65;0.60;;;16.00;1.00;;;;;;7388141;19;20042;-72
2023/08/06 11:39:02;;;;;;;2.08;0.95;;;15.50;1.00;;;;;;7389187;19;20034;-73
2023/08/06 11:41:37;;;;;;;1.48;0.80;;;15.60;1.00;;;;;;7383036;19;20066;-72
2023/08/06 11:44:07;;;;;;;1.33;0.80;;;15.60;1.00;;;;;;7388783;19;20355;-72
2023/08/06 11:46:52;;;;;;;2.15;0.82;;;15.70;1.00;;;;;;7389865;19;20356;-73
2023/08/06 11:49:24;;;;;;;2.08;1.17;;;15.60;1.00;;;;;;7388089;19;20078;-72
2023/08/06 11:51:54;;;;;;;1.02;0.80;;;15.40;1.00;;;;;;7387124;19;20034;-71
2023/08/06 11:54:34;;;;;;;2.08;0.95;;;15.40;1.00;;;;;;7387524;19;20123;-71
2023/08/06 11:57:08;;;;;;;1.73;1.05;;;15.40;1.00;;;;;;7388594;19;20015;-73
2023/08/06 11:59:39;;;;;;;1.38;1.00;;;15.30;1.00;;;;;;7387417;19;20070;-72
2023/08/06 12:02:12;;;;;;;4.03;1.05;;;15.00;1.00;;;;;;7386945;19;20024;-72
2023/08/06 12:05:04;;;;;;;3.90;1.60;;;14.90;1.00;;;;;;7388026;19;20011;-71
2023/08/06 12:07:35;;;;;;;4.10;1.50;;;14.80;1.00;;;;;;7386458;19;20038;-71
2023/08/06 12:10:05;;;;;;;3.15;1.40;;;14.60;1.00;;;;;;7386973;19;20022;-73
2023/08/06 12:12:38;;;;;;;2.70;1.58;;;14.50;1.00;;;;;;7386510;19;20074;-71
2023/08/06 12:15:10;;;;;;;4.28;1.60;;;14.40;1.30;;;;;;7391122;19;20014;-71
2023/08/06 12:17:41;;;;;;;4.18;1.75;;;14.30;7.00;;;;;;7389870;19;20018;-71
2023/08/06 12:20:12;;;;;;;3.42;1.73;;;14.20;7.20;;;;;;7393483;19;20043;-72
2023/08/06 12:22:42;;;;;;;5.75;1.98;;;14.10;6.00;;;;;;7388940;19;20014;-72
2023/08/06 12:25:14;;;;;;;3.78;1.70;;;14.10;7.40;;;;;;7386270;19;20014;-69
2023/08/06 12:27:47;;;;;;;5.03;2.00;;;14.10;12.40;;;;;;7386605;19;20011;-73
2023/08/06 12:30:17;;;;;;;3.90;2.40;;;14.30;14.10;;;;;;7386173;19;20082;-72
2023/08/06 12:32:47;;;;;;;5.13;2.58;;;14.20;8.30;;;;;;7386918;19;20511;-70
2023/08/06 12:35:17;;;;;;;3.70;2.10;;;14.20;6.00;;;;;;7386461;19;20018;-71
2023/08/06 12:37:47;;;;;;;4.43;2.00;;;14.20;7.50;;;;;;7385962;19;20077;-72
2023/08/06 12:40:17;;;;;;;3.95;2.03;;;14.40;6.20;;;;;;7385955;19;20098;-72
2023/08/06 12:43:07;;;;;;;2.30;1.65;;;14.50;5.10;;;;;;7393090;19;20498;-72
2023/08/06 12:45:37;;;;;;;3.83;2.20;;;14.50;2.70;;;;;;7394637;19;20038;-72
2023/08/06 12:48:07;;;;;;;3.85;2.00;;;14.50;1.00;;;;;;7392380;19;20018;-71
2023/08/06 12:50:38;;;;;;;3.20;2.05;;;14.50;1.00;;;;;;7391263;19;20033;-71
2023/08/06 12:53:08;;;;;;;3.53;2.00;;;14.90;1.00;;;;;;7392659;19;20031;-72
2023/08/06 12:55:40;;;;;;;3.28;1.40;;;14.70;1.00;;;;;;7390946;19;20006;-72
2023/08/06 12:58:13;;;;;;;2.05;1.25;;;14.80;1.00;;;;;;7393498;19;20018;-73
2023/08/06 13:00:42;;;;;;;2.47;1.27;;;15.00;1.00;;;;;;7388436;19;20018;-72
2023/08/06 13:03:12;;;;;;;3.60;1.30;;;15.20;1.00;;;;;;7392039;19;20367;-73
2023/08/06 13:05:44;;;;;;;1.90;1.30;;;15.20;1.00;;;;;;7393084;19;20015;-72
2023/08/06 13:08:13;;;;;;;3.03;1.23;;;15.60;1.00;;;;;;7388951;19;20424;-74
2023/08/06 13:10:43;;;;;;;2.90;1.60;;;15.70;1.00;;;;;;7387309;19;20027;-71
2023/08/06 13:13:16;;;;;;;1.75;1.23;;;16.00;1.00;;;;;;7393220;19;20515;-70